createdAt,value
2018-06-28T00:00:01.772Z,13.70
2018-06-28T00:02:33.062Z,12.57
2018-06-28T00:05:04.192Z,9.30
2018-06-28T00:07:35.376Z,9.83
2018-06-28T00:10:06.575Z,12.10
2018-06-28T00:12:38.446Z,12.33
2018-06-28T00:15:09.673Z,12.80
2018-06-28T00:17:40.806Z,9.87
2018-06-28T00:20:11.837Z,9.93
2018-06-28T00:22:42.968Z,10.63
2018-06-28T00:25:14.128Z,13.97
2018-06-28T00:27:45.151Z,12.13
2018-06-28T00:30:16.264Z,11.00
2018-06-28T00:32:48.371Z,12.20
2018-06-28T00:35:19.532Z,12.60
2018-06-28T00:37:50.657Z,14.17
2018-06-28T00:40:21.905Z,11.90
2018-06-28T00:42:52.937Z,12.87
2018-06-28T00:45:24.213Z,12.90
2018-06-28T00:47:55.355Z,14.00
2018-06-28T00:50:26.560Z,12.70
2018-06-28T00:52:57.418Z,14.60
2018-06-28T00:55:28.714Z,15.17
2018-06-28T00:57:59.897Z,15.93
2018-06-28T01:00:31.031Z,17.37
2018-06-28T01:03:02.978Z,18.03
2018-06-28T01:05:44.277Z,22.60
2018-06-28T01:08:15.566Z,20.23
2018-06-28T01:10:46.955Z,29.73
2018-06-28T01:13:18.689Z,22.00
2018-06-28T01:15:53.244Z,30.93
2018-06-28T01:18:24.416Z,31.93
2018-06-28T01:20:55.215Z,27.40
2018-06-28T01:23:29.170Z,23.30
2018-06-28T01:26:00.456Z,28.43
2018-06-28T01:28:31.115Z,25.53
2018-06-28T01:31:02.966Z,27.50
2018-06-28T01:33:33.747Z,26.80
2018-06-28T01:36:04.581Z,34.60
2018-06-28T01:38:35.165Z,23.47
2018-06-28T01:41:05.918Z,19.87
2018-06-28T01:43:47.587Z,14.73
2018-06-28T01:46:19.075Z,16.10
2018-06-28T01:48:49.673Z,24.30
2018-06-28T01:51:20.390Z,20.87
2018-06-28T01:53:51.037Z,16.03
2018-06-28T01:56:21.741Z,20.20
2018-06-28T01:58:52.343Z,18.50
2018-06-28T02:01:23.454Z,19.33
2018-06-28T02:03:54.099Z,20.90
2018-06-28T02:06:24.683Z,23.50
2018-06-28T02:08:55.251Z,15.30
2018-06-28T02:11:26.044Z,20.90
2018-06-28T02:13:56.874Z,21.90
2018-06-28T02:16:27.460Z,19.10
2018-06-28T02:18:58.194Z,22.50
2018-06-28T02:21:28.994Z,15.03
2018-06-28T02:23:59.624Z,13.23
2018-06-28T02:26:30.232Z,13.70
2018-06-28T02:29:00.918Z,13.07
2018-06-28T02:31:31.756Z,16.10
2018-06-28T02:34:02.423Z,12.87
2018-06-28T02:36:33.222Z,13.17
2018-06-28T02:39:04.563Z,13.57
2018-06-28T02:41:35.135Z,12.00
2018-06-28T02:44:05.893Z,10.53
2018-06-28T02:46:36.590Z,12.33
2018-06-28T02:49:07.244Z,9.23
2018-06-28T02:51:37.977Z,8.37
2018-06-28T02:54:08.811Z,9.30
2018-06-28T02:56:39.567Z,9.20
2018-06-28T02:59:10.178Z,9.73
2018-06-28T03:01:40.872Z,15.00
2018-06-28T03:04:11.594Z,9.93
2018-06-28T03:06:43.271Z,11.50
2018-06-28T03:09:13.929Z,17.00
2018-06-28T03:11:44.823Z,13.53
2018-06-28T03:14:15.453Z,11.30
2018-06-28T03:16:46.139Z,11.37
2018-06-28T03:19:17.710Z,11.77
2018-06-28T03:21:48.391Z,19.40
2018-06-28T03:24:19.452Z,10.07
2018-06-28T03:26:50.096Z,10.43
2018-06-28T03:29:21.321Z,10.07
2018-06-28T03:31:52.030Z,11.00
2018-06-28T03:34:23.049Z,9.50
2018-06-28T03:36:54.174Z,12.03
2018-06-28T03:39:24.816Z,9.70
2018-06-28T03:41:56.734Z,10.30
2018-06-28T03:44:27.377Z,15.40
2018-06-28T03:46:58.037Z,10.07
2018-06-28T03:49:28.680Z,11.80
2018-06-28T03:51:59.428Z,10.67
2018-06-28T03:54:30.303Z,10.30
2018-06-28T03:57:01.079Z,11.80
2018-06-28T03:59:31.998Z,9.77
2018-06-28T04:02:02.694Z,9.93
2018-06-28T04:04:33.781Z,9.00
2018-06-28T04:07:04.568Z,10.03
2018-06-28T04:09:35.217Z,12.70
2018-06-28T04:12:05.995Z,10.10
2018-06-28T04:14:36.649Z,11.80
2018-06-28T04:17:08.055Z,8.30
2018-06-28T04:19:38.803Z,10.20
2018-06-28T04:22:09.393Z,8.43
2018-06-28T04:24:40.997Z,8.87
2018-06-28T04:27:11.764Z,7.70
2018-06-28T04:29:42.492Z,8.87
2018-06-28T04:32:13.121Z,8.30
2018-06-28T04:34:44.043Z,8.73
2018-06-28T04:37:14.688Z,7.77
2018-06-28T04:39:45.289Z,8.30
2018-06-28T04:42:15.963Z,7.67
2018-06-28T04:44:46.628Z,8.87
2018-06-28T04:47:17.340Z,8.43
2018-06-28T04:49:48.018Z,7.77
2018-06-28T04:52:18.726Z,11.07
2018-06-28T04:54:49.493Z,8.17
2018-06-28T04:57:20.190Z,7.80
2018-06-28T04:59:51.036Z,10.00
2018-06-28T05:02:21.767Z,17.80
2018-06-28T05:04:52.442Z,9.77
2018-06-28T05:07:23.091Z,7.33
2018-06-28T05:09:53.723Z,10.93
2018-06-28T05:12:24.504Z,6.83
2018-06-28T05:14:55.085Z,11.07
2018-06-28T05:17:25.849Z,14.87
2018-06-28T05:19:56.649Z,8.53
2018-06-28T05:22:27.334Z,8.00
2018-06-28T05:24:57.949Z,16.87
2018-06-28T05:27:28.662Z,5.93
2018-06-28T05:29:59.441Z,7.67
2018-06-28T05:32:30.098Z,7.00
2018-06-28T05:35:00.804Z,6.17
2018-06-28T05:37:31.619Z,5.80
2018-06-28T05:40:02.186Z,6.50
2018-06-28T05:42:32.895Z,5.47
2018-06-28T05:45:03.670Z,4.60
2018-06-28T05:47:34.336Z,4.90
2018-06-28T05:50:05.139Z,5.07
2018-06-28T05:52:35.877Z,5.33
2018-06-28T05:55:06.618Z,5.57
2018-06-28T05:57:37.454Z,7.30
2018-06-28T06:00:08.224Z,6.00
2018-06-28T06:02:38.993Z,6.97
2018-06-28T06:05:09.761Z,6.33
2018-06-28T06:07:40.989Z,7.90
2018-06-28T06:10:11.786Z,7.13
2018-06-28T06:12:42.403Z,7.23
2018-06-28T06:15:13.036Z,6.10
2018-06-28T06:17:43.791Z,5.97
2018-06-28T06:20:14.418Z,5.50
2018-06-28T06:22:45.288Z,5.83
2018-06-28T06:25:15.967Z,6.15
2018-06-28T06:27:46.601Z,5.62
2018-06-28T06:30:17.293Z,5.92
2018-06-28T06:32:48.532Z,8.53
2018-06-28T06:35:19.518Z,6.12
2018-06-28T06:37:50.837Z,5.92
2018-06-28T06:40:22.041Z,6.70
2018-06-28T06:42:53.151Z,6.92
2018-06-28T06:45:25.062Z,7.03
2018-06-28T06:47:56.165Z,7.05
2018-06-28T06:50:27.552Z,8.35
2018-06-28T06:52:58.872Z,8.38
2018-06-28T06:55:30.829Z,7.42
2018-06-28T06:58:02.143Z,7.75
2018-06-28T07:00:33.286Z,9.53
2018-06-28T07:03:04.331Z,8.43
2018-06-28T07:05:35.014Z,9.45
2018-06-28T07:08:05.701Z,7.87
2018-06-28T07:10:36.388Z,6.60
2018-06-28T07:13:07.133Z,7.70
2018-06-28T07:15:38.022Z,7.40
2018-06-28T07:18:08.775Z,8.90
2018-06-28T07:20:39.485Z,7.95
2018-06-28T07:23:10.182Z,6.87
2018-06-28T07:25:40.754Z,7.45
2018-06-28T07:28:11.382Z,7.58
2018-06-28T07:30:42.147Z,7.17
2018-06-28T07:33:12.867Z,6.47
2018-06-28T07:35:43.822Z,6.47
2018-06-28T07:38:14.578Z,11.05
2018-06-28T07:40:45.255Z,7.03
2018-06-28T07:43:15.974Z,7.03
2018-06-28T07:45:46.760Z,7.20
2018-06-28T07:48:17.415Z,8.18
2018-06-28T07:50:48.624Z,6.72
2018-06-28T07:53:19.310Z,7.25
2018-06-28T07:55:50.010Z,7.17
2018-06-28T07:58:20.912Z,7.53
2018-06-28T08:00:52.084Z,6.97
2018-06-28T08:03:22.769Z,8.90
2018-06-28T08:05:53.806Z,6.83
2018-06-28T08:08:24.670Z,7.83
2018-06-28T08:10:55.821Z,13.07
2018-06-28T08:13:26.451Z,12.87
2018-06-28T08:15:57.089Z,8.47
2018-06-28T08:18:27.822Z,9.03
2018-06-28T08:20:58.612Z,12.90
2018-06-28T08:23:29.272Z,8.63
2018-06-28T08:26:00.063Z,9.43
2018-06-28T08:28:30.814Z,8.90
2018-06-28T08:31:01.400Z,11.73
2018-06-28T08:33:32.642Z,10.53
2018-06-28T08:36:03.403Z,9.50
2018-06-28T08:38:34.287Z,10.00
2018-06-28T08:41:04.981Z,10.77
2018-06-28T08:43:35.600Z,9.07
2018-06-28T08:46:06.232Z,8.67
2018-06-28T08:48:36.904Z,10.37
2018-06-28T08:51:08.108Z,9.37
2018-06-28T08:53:39.380Z,13.27
2018-06-28T08:56:10.566Z,18.03
2018-06-28T08:58:41.390Z,14.30
2018-06-28T09:01:12.990Z,9.33
2018-06-28T09:03:44.082Z,9.67
2018-06-28T09:06:15.537Z,13.47
2018-06-28T09:08:46.689Z,10.07
2018-06-28T09:11:18.695Z,8.87
2018-06-28T09:13:49.761Z,9.33
2018-06-28T09:16:21.079Z,9.77
2018-06-28T09:18:52.424Z,16.53
2018-06-28T09:21:23.690Z,12.00
2018-06-28T09:23:55.164Z,12.90
2018-06-28T09:26:26.533Z,8.77
2018-06-28T09:28:57.607Z,8.13
2018-06-28T09:31:29.783Z,8.73
2018-06-28T09:34:00.972Z,8.23
2018-06-28T09:36:32.728Z,9.97
2018-06-28T09:39:05.695Z,8.93
2018-06-28T09:41:36.752Z,9.00
2018-06-28T09:44:08.013Z,11.30
2018-06-28T09:46:39.248Z,25.13
2018-06-28T09:49:10.082Z,8.40
2018-06-28T09:51:40.807Z,9.60
2018-06-28T09:54:11.479Z,10.17
2018-06-28T09:56:42.332Z,8.43
2018-06-28T09:59:13.177Z,7.93
2018-06-28T10:01:44.027Z,9.30
2018-06-28T10:04:16.465Z,8.50
2018-06-28T10:06:47.225Z,10.23
2018-06-28T10:09:18.191Z,7.93
2018-06-28T10:11:50.223Z,8.03
2018-06-28T10:14:20.947Z,12.47
2018-06-28T10:16:51.805Z,9.40
2018-06-28T10:19:22.539Z,9.30
2018-06-28T10:21:53.205Z,9.50
2018-06-28T10:24:24.485Z,9.90
2018-06-28T10:26:55.711Z,11.20
2018-06-28T10:29:26.627Z,9.40
2018-06-28T10:31:57.205Z,13.07
2018-06-28T10:34:28.391Z,8.50
2018-06-28T10:36:59.322Z,13.50
2018-06-28T10:39:30.000Z,11.17
2018-06-28T10:42:00.593Z,8.90
2018-06-28T10:44:31.756Z,7.70
2018-06-28T10:47:03.533Z,11.57
2018-06-28T10:49:34.268Z,8.43
2018-06-28T10:52:05.654Z,8.57
2018-06-28T10:54:36.455Z,11.27
2018-06-28T10:57:07.197Z,8.90
2018-06-28T10:59:38.227Z,8.07
2018-06-28T11:02:08.804Z,7.90
2018-06-28T11:04:39.487Z,9.63
2018-06-28T11:07:10.190Z,9.43
2018-06-28T11:09:40.964Z,7.90
2018-06-28T11:12:11.654Z,8.07
2018-06-28T11:14:42.261Z,8.57
2018-06-28T11:17:13.004Z,8.87
2018-06-28T11:19:43.813Z,7.40
2018-06-28T11:22:14.467Z,7.87
2018-06-28T11:24:45.800Z,8.43
2018-06-28T11:27:16.778Z,8.43
2018-06-28T11:29:47.753Z,8.30
2018-06-28T11:32:19.205Z,9.50
2018-06-28T11:34:50.475Z,9.53
2018-06-28T11:37:21.610Z,15.07
2018-06-28T11:39:52.444Z,7.97
2018-06-28T11:42:23.602Z,9.10
2018-06-28T11:44:54.781Z,8.87
2018-06-28T11:47:26.122Z,8.60
2018-06-28T11:49:57.352Z,21.53
2018-06-28T11:52:29.083Z,13.10
2018-06-28T11:55:00.184Z,10.53
2018-06-28T11:57:31.087Z,12.50
2018-06-28T12:00:02.509Z,9.50
2018-06-28T12:02:33.857Z,8.23
2018-06-28T12:05:04.816Z,8.70
2018-06-28T12:07:35.713Z,7.80
2018-06-28T12:10:07.569Z,7.50
2018-06-28T12:12:40.045Z,10.20
2018-06-28T12:15:10.968Z,7.87
2018-06-28T12:17:44.067Z,9.20
2018-06-28T12:20:15.172Z,14.13
2018-06-28T12:22:46.537Z,7.60
2018-06-28T12:25:17.696Z,10.83
2018-06-28T12:27:48.930Z,7.07
2018-06-28T12:30:20.099Z,9.53
2018-06-28T12:32:51.273Z,7.30
2018-06-28T12:35:24.722Z,11.57
2018-06-28T12:37:55.833Z,7.20
2018-06-28T12:40:27.022Z,7.43
2018-06-28T12:42:58.740Z,12.40
2018-06-28T12:45:29.852Z,7.97
2018-06-28T12:48:09.242Z,9.70
2018-06-28T12:50:40.936Z,11.57
2018-06-28T12:53:13.698Z,9.67
2018-06-28T12:56:50.790Z,11.40
2018-06-28T12:59:23.007Z,10.13
2018-06-28T13:01:54.363Z,7.73
2018-06-28T13:04:25.561Z,8.20
2018-06-28T13:06:56.620Z,8.50
2018-06-28T13:09:28.645Z,8.90
2018-06-28T13:11:59.867Z,17.43
2018-06-28T13:14:31.243Z,9.80
2018-06-28T13:17:02.483Z,17.93
2018-06-28T13:19:33.590Z,7.60
2018-06-28T13:22:04.784Z,9.30
2018-06-28T13:24:36.160Z,11.37
2018-06-28T13:27:07.341Z,9.17
2018-06-28T13:29:38.371Z,7.87
2018-06-28T13:32:09.740Z,8.57
2018-06-28T13:34:41.094Z,8.90
2018-06-28T13:37:12.857Z,7.13
2018-06-28T13:39:44.212Z,7.00
2018-06-28T13:42:15.795Z,10.50
2018-06-28T13:44:47.146Z,12.93
2018-06-28T13:47:18.054Z,9.03
2018-06-28T13:49:49.497Z,8.23
2018-06-28T13:52:20.717Z,6.80
2018-06-28T13:54:51.669Z,9.03
2018-06-28T13:57:22.886Z,11.00
2018-06-28T13:59:53.741Z,7.33
2018-06-28T14:02:26.183Z,11.07
2018-06-28T14:04:57.221Z,12.50
2018-06-28T14:07:28.394Z,9.53
2018-06-28T14:09:59.279Z,8.53
2018-06-28T14:12:30.295Z,14.57
2018-06-28T14:15:01.326Z,7.30
2018-06-28T14:17:32.412Z,9.07
2018-06-28T14:20:03.457Z,9.37
2018-06-28T14:22:34.656Z,8.27
2018-06-28T14:25:06.055Z,7.47
2018-06-28T14:27:37.165Z,18.63
2018-06-28T14:30:09.207Z,8.63
2018-06-28T14:32:41.539Z,11.30
2018-06-28T14:35:13.154Z,8.10
2018-06-28T14:37:44.325Z,8.23
2018-06-28T14:40:15.268Z,11.63
2018-06-28T14:42:46.549Z,13.03
2018-06-28T14:45:17.463Z,16.57
2018-06-28T14:47:49.623Z,12.00
2018-06-28T14:50:20.867Z,12.00
2018-06-28T14:52:52.192Z,10.10
2018-06-28T14:55:23.165Z,8.57
2018-06-28T14:57:54.361Z,10.83
2018-06-28T15:00:25.516Z,14.87
2018-06-28T15:02:58.361Z,8.40
2018-06-28T15:05:29.773Z,11.23
2018-06-28T15:08:01.261Z,8.57
2018-06-28T15:10:32.576Z,10.20
2018-06-28T15:13:03.909Z,9.07
2018-06-28T15:15:35.080Z,18.10
2018-06-28T15:18:06.251Z,14.73
2018-06-28T15:20:37.971Z,11.97
2018-06-28T15:23:09.587Z,11.07
2018-06-28T15:25:40.692Z,9.17
2018-06-28T15:28:11.979Z,10.70
2018-06-28T15:30:43.575Z,12.40
2018-06-28T15:33:15.011Z,11.83
2018-06-28T15:35:46.066Z,11.90
2018-06-28T15:38:18.145Z,6.30
2018-06-28T15:40:49.392Z,8.10
2018-06-28T15:43:22.044Z,9.13
2018-06-28T15:45:53.353Z,10.23
2018-06-28T15:48:24.737Z,14.33
2018-06-28T15:50:55.856Z,7.07
2018-06-28T15:53:27.129Z,7.90
2018-06-28T15:55:58.360Z,10.33
2018-06-28T15:58:33.778Z,10.30
2018-06-28T16:01:04.938Z,7.20
2018-06-28T16:03:36.097Z,10.17
2018-06-28T16:06:07.632Z,7.93
2018-06-28T16:08:39.147Z,12.93
2018-06-28T16:11:10.303Z,8.70
2018-06-28T16:13:41.847Z,11.20
2018-06-28T16:16:14.543Z,18.70
2018-06-28T16:18:45.737Z,11.90
2018-06-28T16:21:17.095Z,8.33
2018-06-28T16:23:48.106Z,13.20
2018-06-28T16:26:20.126Z,15.30
2018-06-28T16:28:52.126Z,12.67
2018-06-28T16:31:23.559Z,7.57
2018-06-28T16:33:55.086Z,10.20
2018-06-28T16:36:26.598Z,11.53
2018-06-28T16:38:58.013Z,10.07
2018-06-28T16:41:28.970Z,10.27
2018-06-28T16:44:00.618Z,13.57
2018-06-28T16:46:32.162Z,11.00
2018-06-28T16:49:04.506Z,15.67
2018-06-28T16:51:36.195Z,9.37
2018-06-28T16:54:07.652Z,7.33
2018-06-28T16:56:38.851Z,8.47
2018-06-28T16:59:10.271Z,9.00
2018-06-28T17:01:41.537Z,8.20
2018-06-28T17:04:12.742Z,6.07
2018-06-28T17:06:46.020Z,9.77
2018-06-28T17:09:17.626Z,8.67
2018-06-28T17:11:48.683Z,7.70
2018-06-28T17:14:20.740Z,8.10
2018-06-28T17:16:51.949Z,8.10
2018-06-28T17:19:23.202Z,16.03
2018-06-28T17:21:54.404Z,8.60
2018-06-28T17:24:26.454Z,6.63
2018-06-28T17:26:58.409Z,16.90
2018-06-28T17:29:29.671Z,14.80
2018-06-28T17:32:00.816Z,19.00
2018-06-28T17:34:32.578Z,16.03
2018-06-28T17:37:03.971Z,11.30
2018-06-28T17:39:35.453Z,12.60
2018-06-28T17:42:07.891Z,16.53
2018-06-28T17:44:39.530Z,8.10
2018-06-28T17:47:10.800Z,15.80
2018-06-28T17:49:42.015Z,15.03
2018-06-28T17:52:13.926Z,8.90
2018-06-28T17:54:46.411Z,11.90
2018-06-28T17:57:17.801Z,7.30
2018-06-28T17:59:49.020Z,8.43
2018-06-28T18:02:20.460Z,11.50
2018-06-28T18:04:51.315Z,7.60
2018-06-28T18:07:23.307Z,8.70
2018-06-28T18:09:54.544Z,9.63
2018-06-28T18:12:25.620Z,6.93
2018-06-28T18:14:56.788Z,9.83
2018-06-28T18:17:28.008Z,7.80
2018-06-28T18:19:59.357Z,11.13
2018-06-28T18:22:31.088Z,14.50
2018-06-28T18:25:03.175Z,10.47
2018-06-28T18:27:34.513Z,11.53
2018-06-28T18:30:05.905Z,9.50
2018-06-28T18:32:37.188Z,12.53
2018-06-28T18:35:08.675Z,11.27
2018-06-28T18:37:39.729Z,15.37
2018-06-28T18:40:11.282Z,9.83
2018-06-28T18:42:42.675Z,12.13
2018-06-28T18:45:14.482Z,6.70
2018-06-28T18:47:45.970Z,6.80
2018-06-28T18:50:18.133Z,14.30
2018-06-28T18:52:49.331Z,10.97
2018-06-28T18:55:21.225Z,9.17
2018-06-28T18:57:52.485Z,13.30
2018-06-28T19:00:23.785Z,10.97
2018-06-28T19:02:56.002Z,10.27
2018-06-28T19:05:27.624Z,11.03
2018-06-28T19:07:59.154Z,11.30
2018-06-28T19:10:36.586Z,14.77
2018-06-28T19:13:08.695Z,13.70
2018-06-28T19:15:44.848Z,7.90
2018-06-28T19:18:15.911Z,13.50
2018-06-28T19:20:52.080Z,18.27
2018-06-28T19:23:27.869Z,11.20
2018-06-28T19:25:59.397Z,7.13
2018-06-28T19:28:30.951Z,9.17
2018-06-28T19:31:07.181Z,12.10
2018-06-28T19:33:38.452Z,10.00
2018-06-28T19:36:09.868Z,16.27
2018-06-28T19:38:46.046Z,6.40
2018-06-28T19:41:23.055Z,9.60
2018-06-28T19:43:54.391Z,10.60
2018-06-28T19:46:25.475Z,10.63
2018-06-28T19:48:56.619Z,6.17
2018-06-28T19:51:32.650Z,14.63
2018-06-28T19:54:05.256Z,5.97
2018-06-28T19:56:36.414Z,9.80
2018-06-28T19:59:07.692Z,5.87
2018-06-28T20:01:47.368Z,7.53
2018-06-28T20:04:22.592Z,7.77
2018-06-28T20:06:54.466Z,7.13
2018-06-28T20:09:25.773Z,10.83
2018-06-28T20:11:57.178Z,11.27
2018-06-28T20:14:33.485Z,7.13
2018-06-28T20:17:09.557Z,17.33
2018-06-28T20:19:45.677Z,12.70
2018-06-28T20:22:16.947Z,16.47
2018-06-28T20:24:48.196Z,11.57
2018-06-28T20:27:25.010Z,6.30
2018-06-28T20:30:01.833Z,10.17
2018-06-28T20:32:37.866Z,6.80
2018-06-28T20:35:12.754Z,7.33
2018-06-28T20:37:44.378Z,6.60
2018-06-28T20:40:15.858Z,6.30
2018-06-28T20:42:49.246Z,8.00
2018-06-28T20:45:20.862Z,17.40
2018-06-28T20:47:53.373Z,25.10
2018-06-28T20:50:28.823Z,27.20
2018-06-28T20:53:05.818Z,30.20
2018-06-28T20:55:37.510Z,27.53
2018-06-28T20:58:08.981Z,21.93
2018-06-28T21:00:40.278Z,15.40
2018-06-28T21:03:11.468Z,9.63
2018-06-28T21:05:42.729Z,5.37
2018-06-28T21:08:14.416Z,10.83
2018-06-28T21:10:46.324Z,3.80
2018-06-28T21:13:17.362Z,4.53
2018-06-28T21:15:48.534Z,6.40
2018-06-28T21:18:20.082Z,4.67
2018-06-28T21:20:51.159Z,4.03
2018-06-28T21:23:22.284Z,6.00
2018-06-28T21:25:53.362Z,4.43
2018-06-28T21:28:24.568Z,3.80
2018-06-28T21:30:55.960Z,3.97
2018-06-28T21:33:27.143Z,6.33
2018-06-28T21:35:59.090Z,3.87
2018-06-28T21:38:31.192Z,3.30
2018-06-28T21:41:02.605Z,2.90
2018-06-28T21:43:33.495Z,7.23
2018-06-28T21:46:04.497Z,5.57
2018-06-28T21:48:36.384Z,5.30
2018-06-28T21:51:07.684Z,4.20
2018-06-28T21:53:39.017Z,5.60
2018-06-28T21:56:10.417Z,4.27
2018-06-28T21:58:41.701Z,5.10
2018-06-28T22:01:12.944Z,3.93
2018-06-28T22:03:44.024Z,3.50
2018-06-28T22:06:14.982Z,8.67
2018-06-28T22:08:46.323Z,4.27
2018-06-28T22:11:17.216Z,4.00
2018-06-28T22:13:48.152Z,9.47
2018-06-28T22:16:20.121Z,7.47
2018-06-28T22:18:51.244Z,3.50
2018-06-28T22:21:22.298Z,4.80
2018-06-28T22:23:53.527Z,3.87
2018-06-28T22:26:24.694Z,3.27
2018-06-28T22:28:55.774Z,5.40
2018-06-28T22:31:26.469Z,3.57
2018-06-28T22:33:57.865Z,3.73
2018-06-28T22:36:28.799Z,4.17
2018-06-28T22:39:00.021Z,5.23
2018-06-28T22:41:32.315Z,4.70
2018-06-28T22:44:04.573Z,4.07
2018-06-28T22:46:35.864Z,3.63
2018-06-28T22:49:07.539Z,3.90
2018-06-28T22:51:39.650Z,10.90
2018-06-28T22:54:10.734Z,5.27
2018-06-28T22:56:41.932Z,3.47
2018-06-28T22:59:13.049Z,6.57
2018-06-28T23:01:44.295Z,6.93
2018-06-28T23:04:15.383Z,3.80
2018-06-28T23:06:47.476Z,6.80
2018-06-28T23:09:18.834Z,7.70
2018-06-28T23:11:49.928Z,7.70
2018-06-28T23:14:21.066Z,4.40
2018-06-28T23:16:52.284Z,6.53
2018-06-28T23:19:23.396Z,4.30
2018-06-28T23:21:54.526Z,5.13
2018-06-28T23:24:25.713Z,3.23
2018-06-28T23:26:56.878Z,13.80
2018-06-28T23:29:29.040Z,5.30
2018-06-28T23:32:00.091Z,8.00
2018-06-28T23:34:31.019Z,13.00
2018-06-28T23:37:02.182Z,5.93
2018-06-28T23:39:33.181Z,7.97
2018-06-28T23:42:04.159Z,12.57
2018-06-28T23:44:35.232Z,5.40
2018-06-28T23:47:06.440Z,4.60
2018-06-28T23:49:37.746Z,18.07
2018-06-28T23:52:08.630Z,9.30
2018-06-28T23:54:39.689Z,4.03
2018-06-28T23:57:10.823Z,5.03
2018-06-28T23:59:41.704Z,6.17
